<?xml version="1.0" encoding="UTF-8" standalone="no" ?>
<gpx xmlns="http://www.topografix.com/GPX/1/1" xmlns:xsi="http://www.w3.org/2001/XMLSchema-instance" xsi:schemaLocation="http://www.topografix.com/GPX/1/1 http://www.topografix.com/GPX/1/1/gpx.xsd" version="1.1" creator="VisuGPX - https://www.visugpx.com">
  <metadata>
    <name>parcde l'aurence</name>
    <desc><![CDATA[
]]></desc>
  </metadata>
  <trk>
    <name><![CDATA[parcde l'aurence_1]]></name>
    <trkseg>
      <trkpt lat="45.86907" lon="1.27251">
        <ele>286</ele>
        <time>2019-12-06T10:00:56Z</time>
      </trkpt>
      <trkpt lat="45.86902" lon="1.27259">
        <ele>287</ele>
        <time>2019-12-06T10:01:06Z</time>
      </trkpt>
      <trkpt lat="45.86895" lon="1.27268">
        <ele>285</ele>
        <time>2019-12-06T10:01:16Z</time>
      </trkpt>
      <trkpt lat="45.8689" lon="1.27279">
        <ele>284</ele>
        <time>2019-12-06T10:01:26Z</time>
      </trkpt>
      <trkpt lat="45.8688" lon="1.27284">
        <ele>283</ele>
        <time>2019-12-06T10:01:36Z</time>
      </trkpt>
      <trkpt lat="45.86867" lon="1.27285">
        <ele>282</ele>
        <time>2019-12-06T10:01:46Z</time>
      </trkpt>
      <trkpt lat="45.86852" lon="1.27278">
        <ele>280</ele>
        <time>2019-12-06T10:01:57Z</time>
      </trkpt>
      <trkpt lat="45.86841" lon="1.27282">
        <ele>279</ele>
        <time>2019-12-06T10:02:07Z</time>
      </trkpt>
      <trkpt lat="45.86848" lon="1.27303">
        <ele>278</ele>
        <time>2019-12-06T10:02:18Z</time>
      </trkpt>
      <trkpt lat="45.86855" lon="1.27323">
        <ele>278</ele>
        <time>2019-12-06T10:02:29Z</time>
      </trkpt>
      <trkpt lat="45.86857" lon="1.27336">
        <ele>278</ele>
        <time>2019-12-06T10:02:39Z</time>
      </trkpt>
      <trkpt lat="45.86864" lon="1.27354">
        <ele>278</ele>
        <time>2019-12-06T10:02:50Z</time>
      </trkpt>
      <trkpt lat="45.86874" lon="1.27369">
        <ele>279</ele>
        <time>2019-12-06T10:03:01Z</time>
      </trkpt>
      <trkpt lat="45.86882" lon="1.27385">
        <ele>278</ele>
        <time>2019-12-06T10:03:11Z</time>
      </trkpt>
      <trkpt lat="45.86891" lon="1.27403">
        <ele>278</ele>
        <time>2019-12-06T10:03:22Z</time>
      </trkpt>
      <trkpt lat="45.86901" lon="1.27418">
        <ele>278</ele>
        <time>2019-12-06T10:03:33Z</time>
      </trkpt>
      <trkpt lat="45.86909" lon="1.27433">
        <ele>278</ele>
        <time>2019-12-06T10:03:43Z</time>
      </trkpt>
      <trkpt lat="45.86922" lon="1.27438">
        <ele>278</ele>
        <time>2019-12-06T10:03:54Z</time>
      </trkpt>
      <trkpt lat="45.86935" lon="1.2744">
        <ele>279</ele>
        <time>2019-12-06T10:04:04Z</time>
      </trkpt>
      <trkpt lat="45.8695" lon="1.2745">
        <ele>279</ele>
        <time>2019-12-06T10:04:15Z</time>
      </trkpt>
      <trkpt lat="45.86957" lon="1.27462">
        <ele>279</ele>
        <time>2019-12-06T10:04:25Z</time>
      </trkpt>
      <trkpt lat="45.86956" lon="1.27475">
        <ele>279</ele>
        <time>2019-12-06T10:04:35Z</time>
      </trkpt>
      <trkpt lat="45.86947" lon="1.27485">
        <ele>279</ele>
        <time>2019-12-06T10:04:45Z</time>
      </trkpt>
      <trkpt lat="45.86937" lon="1.27491">
        <ele>278</ele>
        <time>2019-12-06T10:04:56Z</time>
      </trkpt>
      <trkpt lat="45.86924" lon="1.27499">
        <ele>278</ele>
        <time>2019-12-06T10:05:07Z</time>
      </trkpt>
      <trkpt lat="45.86915" lon="1.27513">
        <ele>278</ele>
        <time>2019-12-06T10:05:18Z</time>
      </trkpt>
      <trkpt lat="45.86904" lon="1.27528">
        <ele>278</ele>
        <time>2019-12-06T10:05:29Z</time>
      </trkpt>
      <trkpt lat="45.86895" lon="1.2754">
        <ele>277</ele>
        <time>2019-12-06T10:05:39Z</time>
      </trkpt>
      <trkpt lat="45.86885" lon="1.27553">
        <ele>277</ele>
        <time>2019-12-06T10:05:49Z</time>
      </trkpt>
      <trkpt lat="45.86875" lon="1.2756">
        <ele>277</ele>
        <time>2019-12-06T10:06:00Z</time>
      </trkpt>
      <trkpt lat="45.86867" lon="1.27564">
        <ele>277</ele>
        <time>2019-12-06T10:06:10Z</time>
      </trkpt>
      <trkpt lat="45.86854" lon="1.27567">
        <ele>278</ele>
        <time>2019-12-06T10:06:21Z</time>
      </trkpt>
      <trkpt lat="45.86838" lon="1.27574">
        <ele>278</ele>
        <time>2019-12-06T10:06:32Z</time>
      </trkpt>
      <trkpt lat="45.86829" lon="1.27588">
        <ele>278</ele>
        <time>2019-12-06T10:06:42Z</time>
      </trkpt>
      <trkpt lat="45.86826" lon="1.27609">
        <ele>279</ele>
        <time>2019-12-06T10:06:53Z</time>
      </trkpt>
      <trkpt lat="45.86826" lon="1.27628">
        <ele>280</ele>
        <time>2019-12-06T10:07:04Z</time>
      </trkpt>
      <trkpt lat="45.86823" lon="1.27647">
        <ele>281</ele>
        <time>2019-12-06T10:07:15Z</time>
      </trkpt>
      <trkpt lat="45.86824" lon="1.27666">
        <ele>282</ele>
        <time>2019-12-06T10:07:25Z</time>
      </trkpt>
      <trkpt lat="45.86832" lon="1.27686">
        <ele>281</ele>
        <time>2019-12-06T10:07:36Z</time>
      </trkpt>
      <trkpt lat="45.86842" lon="1.27701">
        <ele>281</ele>
        <time>2019-12-06T10:07:47Z</time>
      </trkpt>
      <trkpt lat="45.86848" lon="1.27718">
        <ele>282</ele>
        <time>2019-12-06T10:07:58Z</time>
      </trkpt>
      <trkpt lat="45.86855" lon="1.2773">
        <ele>282</ele>
        <time>2019-12-06T10:08:08Z</time>
      </trkpt>
      <trkpt lat="45.86868" lon="1.27737">
        <ele>282</ele>
        <time>2019-12-06T10:08:18Z</time>
      </trkpt>
      <trkpt lat="45.8688" lon="1.27741">
        <ele>283</ele>
        <time>2019-12-06T10:08:29Z</time>
      </trkpt>
      <trkpt lat="45.86893" lon="1.27744">
        <ele>282</ele>
        <time>2019-12-06T10:08:39Z</time>
      </trkpt>
      <trkpt lat="45.86906" lon="1.27746">
        <ele>282</ele>
        <time>2019-12-06T10:08:50Z</time>
      </trkpt>
      <trkpt lat="45.86913" lon="1.27751">
        <ele>283</ele>
        <time>2019-12-06T10:09:00Z</time>
      </trkpt>
      <trkpt lat="45.86902" lon="1.27747">
        <ele>284</ele>
        <time>2019-12-06T10:09:11Z</time>
      </trkpt>
      <trkpt lat="45.8689" lon="1.27739">
        <ele>284</ele>
        <time>2019-12-06T10:09:22Z</time>
      </trkpt>
      <trkpt lat="45.86876" lon="1.27736">
        <ele>285</ele>
        <time>2019-12-06T10:09:32Z</time>
      </trkpt>
      <trkpt lat="45.8686" lon="1.27734">
        <ele>286</ele>
        <time>2019-12-06T10:09:43Z</time>
      </trkpt>
      <trkpt lat="45.86844" lon="1.2773">
        <ele>286</ele>
        <time>2019-12-06T10:09:53Z</time>
      </trkpt>
      <trkpt lat="45.86827" lon="1.27726">
        <ele>287</ele>
        <time>2019-12-06T10:10:04Z</time>
      </trkpt>
      <trkpt lat="45.86814" lon="1.27725">
        <ele>288</ele>
        <time>2019-12-06T10:10:14Z</time>
      </trkpt>
      <trkpt lat="45.868" lon="1.27722">
        <ele>289</ele>
        <time>2019-12-06T10:10:25Z</time>
      </trkpt>
      <trkpt lat="45.86787" lon="1.27722">
        <ele>290</ele>
        <time>2019-12-06T10:10:35Z</time>
      </trkpt>
      <trkpt lat="45.86776" lon="1.27716">
        <ele>290</ele>
        <time>2019-12-06T10:10:45Z</time>
      </trkpt>
      <trkpt lat="45.86765" lon="1.27711">
        <ele>291</ele>
        <time>2019-12-06T10:10:55Z</time>
      </trkpt>
      <trkpt lat="45.8675" lon="1.27703">
        <ele>292</ele>
        <time>2019-12-06T10:11:06Z</time>
      </trkpt>
      <trkpt lat="45.86737" lon="1.27695">
        <ele>293</ele>
        <time>2019-12-06T10:11:17Z</time>
      </trkpt>
      <trkpt lat="45.86726" lon="1.27688">
        <ele>293</ele>
        <time>2019-12-06T10:11:27Z</time>
      </trkpt>
      <trkpt lat="45.86716" lon="1.27681">
        <ele>294</ele>
        <time>2019-12-06T10:11:37Z</time>
      </trkpt>
      <trkpt lat="45.86703" lon="1.2767">
        <ele>295</ele>
        <time>2019-12-06T10:11:48Z</time>
      </trkpt>
      <trkpt lat="45.86691" lon="1.27663">
        <ele>296</ele>
        <time>2019-12-06T10:11:58Z</time>
      </trkpt>
      <trkpt lat="45.86678" lon="1.27653">
        <ele>296</ele>
        <time>2019-12-06T10:12:09Z</time>
      </trkpt>
      <trkpt lat="45.86667" lon="1.27657">
        <ele>296</ele>
        <time>2019-12-06T10:12:19Z</time>
      </trkpt>
      <trkpt lat="45.86662" lon="1.27674">
        <ele>297</ele>
        <time>2019-12-06T10:12:30Z</time>
      </trkpt>
      <trkpt lat="45.86657" lon="1.27689">
        <ele>297</ele>
        <time>2019-12-06T10:12:41Z</time>
      </trkpt>
      <trkpt lat="45.86652" lon="1.27701">
        <ele>297</ele>
        <time>2019-12-06T10:12:51Z</time>
      </trkpt>
      <trkpt lat="45.86646" lon="1.27718">
        <ele>297</ele>
        <time>2019-12-06T10:13:02Z</time>
      </trkpt>
      <trkpt lat="45.86647" lon="1.27726">
        <ele>297</ele>
        <time>2019-12-06T10:13:12Z</time>
      </trkpt>
      <trkpt lat="45.86652" lon="1.27744">
        <ele>296</ele>
        <time>2019-12-06T10:13:22Z</time>
      </trkpt>
      <trkpt lat="45.86644" lon="1.2776">
        <ele>297</ele>
        <time>2019-12-06T10:13:32Z</time>
      </trkpt>
      <trkpt lat="45.86637" lon="1.27766">
        <ele>297</ele>
        <time>2019-12-06T10:13:43Z</time>
      </trkpt>
      <trkpt lat="45.8663" lon="1.27782">
        <ele>298</ele>
        <time>2019-12-06T10:13:53Z</time>
      </trkpt>
      <trkpt lat="45.86633" lon="1.27799">
        <ele>298</ele>
        <time>2019-12-06T10:14:03Z</time>
      </trkpt>
      <trkpt lat="45.86641" lon="1.2782">
        <ele>298</ele>
        <time>2019-12-06T10:14:14Z</time>
      </trkpt>
      <trkpt lat="45.86643" lon="1.27838">
        <ele>298</ele>
        <time>2019-12-06T10:14:24Z</time>
      </trkpt>
      <trkpt lat="45.86647" lon="1.27856">
        <ele>299</ele>
        <time>2019-12-06T10:14:34Z</time>
      </trkpt>
      <trkpt lat="45.86649" lon="1.27877">
        <ele>300</ele>
        <time>2019-12-06T10:14:45Z</time>
      </trkpt>
      <trkpt lat="45.86644" lon="1.27896">
        <ele>301</ele>
        <time>2019-12-06T10:14:56Z</time>
      </trkpt>
      <trkpt lat="45.86641" lon="1.27913">
        <ele>302</ele>
        <time>2019-12-06T10:15:06Z</time>
      </trkpt>
      <trkpt lat="45.8664" lon="1.27927">
        <ele>303</ele>
        <time>2019-12-06T10:15:16Z</time>
      </trkpt>
      <trkpt lat="45.86645" lon="1.27946">
        <ele>304</ele>
        <time>2019-12-06T10:15:27Z</time>
      </trkpt>
      <trkpt lat="45.86654" lon="1.2796">
        <ele>306</ele>
        <time>2019-12-06T10:15:37Z</time>
      </trkpt>
      <trkpt lat="45.86666" lon="1.27972">
        <ele>306</ele>
        <time>2019-12-06T10:15:48Z</time>
      </trkpt>
      <trkpt lat="45.86674" lon="1.27983">
        <ele>307</ele>
        <time>2019-12-06T10:15:58Z</time>
      </trkpt>
      <trkpt lat="45.86684" lon="1.27997">
        <ele>308</ele>
        <time>2019-12-06T10:16:08Z</time>
      </trkpt>
      <trkpt lat="45.86682" lon="1.2801">
        <ele>309</ele>
        <time>2019-12-06T10:16:19Z</time>
      </trkpt>
      <trkpt lat="45.86681" lon="1.28027">
        <ele>310</ele>
        <time>2019-12-06T10:16:30Z</time>
      </trkpt>
      <trkpt lat="45.86685" lon="1.28047">
        <ele>311</ele>
        <time>2019-12-06T10:16:41Z</time>
      </trkpt>
      <trkpt lat="45.86692" lon="1.28063">
        <ele>312</ele>
        <time>2019-12-06T10:16:52Z</time>
      </trkpt>
      <trkpt lat="45.86691" lon="1.28062">
        <ele>312</ele>
        <time>2019-12-06T10:17:03Z</time>
      </trkpt>
      <trkpt lat="45.86703" lon="1.28066">
        <ele>313</ele>
        <time>2019-12-06T10:17:13Z</time>
      </trkpt>
      <trkpt lat="45.86715" lon="1.28064">
        <ele>312</ele>
        <time>2019-12-06T10:17:23Z</time>
      </trkpt>
      <trkpt lat="45.86727" lon="1.28061">
        <ele>312</ele>
        <time>2019-12-06T10:17:34Z</time>
      </trkpt>
      <trkpt lat="45.86742" lon="1.28057">
        <ele>312</ele>
        <time>2019-12-06T10:17:44Z</time>
      </trkpt>
      <trkpt lat="45.86754" lon="1.28057">
        <ele>312</ele>
        <time>2019-12-06T10:17:55Z</time>
      </trkpt>
      <trkpt lat="45.86766" lon="1.28059">
        <ele>312</ele>
        <time>2019-12-06T10:18:05Z</time>
      </trkpt>
      <trkpt lat="45.86777" lon="1.28064">
        <ele>312</ele>
        <time>2019-12-06T10:18:15Z</time>
      </trkpt>
      <trkpt lat="45.86788" lon="1.28072">
        <ele>312</ele>
        <time>2019-12-06T10:18:26Z</time>
      </trkpt>
      <trkpt lat="45.868" lon="1.28077">
        <ele>312</ele>
        <time>2019-12-06T10:18:36Z</time>
      </trkpt>
      <trkpt lat="45.86813" lon="1.28086">
        <ele>312</ele>
        <time>2019-12-06T10:18:46Z</time>
      </trkpt>
      <trkpt lat="45.86826" lon="1.28093">
        <ele>312</ele>
        <time>2019-12-06T10:18:57Z</time>
      </trkpt>
      <trkpt lat="45.86834" lon="1.28104">
        <ele>312</ele>
        <time>2019-12-06T10:19:07Z</time>
      </trkpt>
      <trkpt lat="45.86843" lon="1.28118">
        <ele>312</ele>
        <time>2019-12-06T10:19:18Z</time>
      </trkpt>
      <trkpt lat="45.86855" lon="1.28119">
        <ele>311</ele>
        <time>2019-12-06T10:19:28Z</time>
      </trkpt>
      <trkpt lat="45.86866" lon="1.2812">
        <ele>309</ele>
        <time>2019-12-06T10:19:39Z</time>
      </trkpt>
      <trkpt lat="45.86868" lon="1.28129">
        <ele>307</ele>
        <time>2019-12-06T10:19:49Z</time>
      </trkpt>
      <trkpt lat="45.86867" lon="1.28147">
        <ele>305</ele>
        <time>2019-12-06T10:20:00Z</time>
      </trkpt>
      <trkpt lat="45.86868" lon="1.28157">
        <ele>304</ele>
        <time>2019-12-06T10:20:11Z</time>
      </trkpt>
      <trkpt lat="45.86868" lon="1.28175">
        <ele>303</ele>
        <time>2019-12-06T10:20:22Z</time>
      </trkpt>
      <trkpt lat="45.86874" lon="1.28194">
        <ele>303</ele>
        <time>2019-12-06T10:20:33Z</time>
      </trkpt>
      <trkpt lat="45.86878" lon="1.28204">
        <ele>304</ele>
        <time>2019-12-06T10:20:44Z</time>
      </trkpt>
      <trkpt lat="45.86888" lon="1.28217">
        <ele>304</ele>
        <time>2019-12-06T10:20:55Z</time>
      </trkpt>
      <trkpt lat="45.86895" lon="1.28233">
        <ele>306</ele>
        <time>2019-12-06T10:21:05Z</time>
      </trkpt>
      <trkpt lat="45.86905" lon="1.28251">
        <ele>308</ele>
        <time>2019-12-06T10:21:16Z</time>
      </trkpt>
      <trkpt lat="45.8691" lon="1.2827">
        <ele>310</ele>
        <time>2019-12-06T10:21:27Z</time>
      </trkpt>
      <trkpt lat="45.86914" lon="1.28288">
        <ele>312</ele>
        <time>2019-12-06T10:21:38Z</time>
      </trkpt>
      <trkpt lat="45.86918" lon="1.28302">
        <ele>313</ele>
        <time>2019-12-06T10:21:48Z</time>
      </trkpt>
      <trkpt lat="45.86921" lon="1.28318">
        <ele>315</ele>
        <time>2019-12-06T10:21:58Z</time>
      </trkpt>
      <trkpt lat="45.86931" lon="1.28332">
        <ele>315</ele>
        <time>2019-12-06T10:22:09Z</time>
      </trkpt>
      <trkpt lat="45.86938" lon="1.28347">
        <ele>316</ele>
        <time>2019-12-06T10:22:19Z</time>
      </trkpt>
      <trkpt lat="45.86947" lon="1.2836">
        <ele>315</ele>
        <time>2019-12-06T10:22:30Z</time>
      </trkpt>
      <trkpt lat="45.86952" lon="1.28373">
        <ele>314</ele>
        <time>2019-12-06T10:22:40Z</time>
      </trkpt>
      <trkpt lat="45.86956" lon="1.28384">
        <ele>314</ele>
        <time>2019-12-06T10:22:51Z</time>
      </trkpt>
      <trkpt lat="45.86963" lon="1.28399">
        <ele>313</ele>
        <time>2019-12-06T10:23:02Z</time>
      </trkpt>
      <trkpt lat="45.86968" lon="1.28416">
        <ele>313</ele>
        <time>2019-12-06T10:23:12Z</time>
      </trkpt>
      <trkpt lat="45.86972" lon="1.28434">
        <ele>312</ele>
        <time>2019-12-06T10:23:22Z</time>
      </trkpt>
      <trkpt lat="45.86975" lon="1.28452">
        <ele>312</ele>
        <time>2019-12-06T10:23:32Z</time>
      </trkpt>
      <trkpt lat="45.86976" lon="1.28471">
        <ele>310</ele>
        <time>2019-12-06T10:23:42Z</time>
      </trkpt>
      <trkpt lat="45.86969" lon="1.28482">
        <ele>310</ele>
        <time>2019-12-06T10:23:53Z</time>
      </trkpt>
      <trkpt lat="45.86967" lon="1.28498">
        <ele>309</ele>
        <time>2019-12-06T10:24:04Z</time>
      </trkpt>
      <trkpt lat="45.86972" lon="1.28514">
        <ele>309</ele>
        <time>2019-12-06T10:24:15Z</time>
      </trkpt>
      <trkpt lat="45.86982" lon="1.28523">
        <ele>309</ele>
        <time>2019-12-06T10:24:26Z</time>
      </trkpt>
      <trkpt lat="45.86992" lon="1.2853">
        <ele>309</ele>
        <time>2019-12-06T10:24:36Z</time>
      </trkpt>
      <trkpt lat="45.87" lon="1.28542">
        <ele>308</ele>
        <time>2019-12-06T10:24:46Z</time>
      </trkpt>
      <trkpt lat="45.87014" lon="1.28553">
        <ele>308</ele>
        <time>2019-12-06T10:24:57Z</time>
      </trkpt>
      <trkpt lat="45.87028" lon="1.28559">
        <ele>307</ele>
        <time>2019-12-06T10:25:07Z</time>
      </trkpt>
      <trkpt lat="45.87041" lon="1.28562">
        <ele>308</ele>
        <time>2019-12-06T10:25:18Z</time>
      </trkpt>
      <trkpt lat="45.87051" lon="1.28562">
        <ele>310</ele>
        <time>2019-12-06T10:25:28Z</time>
      </trkpt>
      <trkpt lat="45.87063" lon="1.28567">
        <ele>311</ele>
        <time>2019-12-06T10:25:38Z</time>
      </trkpt>
      <trkpt lat="45.87078" lon="1.28574">
        <ele>312</ele>
        <time>2019-12-06T10:25:48Z</time>
      </trkpt>
      <trkpt lat="45.87097" lon="1.28574">
        <ele>313</ele>
        <time>2019-12-06T10:25:59Z</time>
      </trkpt>
      <trkpt lat="45.87108" lon="1.2857">
        <ele>313</ele>
        <time>2019-12-06T10:26:09Z</time>
      </trkpt>
      <trkpt lat="45.8712" lon="1.28569">
        <ele>314</ele>
        <time>2019-12-06T10:26:19Z</time>
      </trkpt>
      <trkpt lat="45.87135" lon="1.28564">
        <ele>315</ele>
        <time>2019-12-06T10:26:30Z</time>
      </trkpt>
      <trkpt lat="45.8715" lon="1.28564">
        <ele>315</ele>
        <time>2019-12-06T10:26:40Z</time>
      </trkpt>
      <trkpt lat="45.87162" lon="1.28564">
        <ele>314</ele>
        <time>2019-12-06T10:26:50Z</time>
      </trkpt>
      <trkpt lat="45.87175" lon="1.28561">
        <ele>314</ele>
        <time>2019-12-06T10:27:01Z</time>
      </trkpt>
      <trkpt lat="45.87187" lon="1.28562">
        <ele>313</ele>
        <time>2019-12-06T10:27:11Z</time>
      </trkpt>
      <trkpt lat="45.872" lon="1.28559">
        <ele>312</ele>
        <time>2019-12-06T10:27:22Z</time>
      </trkpt>
      <trkpt lat="45.87213" lon="1.28556">
        <ele>311</ele>
        <time>2019-12-06T10:27:32Z</time>
      </trkpt>
      <trkpt lat="45.87226" lon="1.28563">
        <ele>309</ele>
        <time>2019-12-06T10:27:42Z</time>
      </trkpt>
      <trkpt lat="45.87233" lon="1.28578">
        <ele>308</ele>
        <time>2019-12-06T10:27:53Z</time>
      </trkpt>
      <trkpt lat="45.87239" lon="1.2859">
        <ele>307</ele>
        <time>2019-12-06T10:28:03Z</time>
      </trkpt>
      <trkpt lat="45.87235" lon="1.28604">
        <ele>307</ele>
        <time>2019-12-06T10:28:14Z</time>
      </trkpt>
      <trkpt lat="45.87229" lon="1.28617">
        <ele>306</ele>
        <time>2019-12-06T10:28:24Z</time>
      </trkpt>
      <trkpt lat="45.87225" lon="1.28634">
        <ele>306</ele>
        <time>2019-12-06T10:28:35Z</time>
      </trkpt>
      <trkpt lat="45.87223" lon="1.28648">
        <ele>305</ele>
        <time>2019-12-06T10:28:45Z</time>
      </trkpt>
      <trkpt lat="45.87218" lon="1.28668">
        <ele>306</ele>
        <time>2019-12-06T10:28:56Z</time>
      </trkpt>
      <trkpt lat="45.87213" lon="1.28688">
        <ele>306</ele>
        <time>2019-12-06T10:29:06Z</time>
      </trkpt>
      <trkpt lat="45.87208" lon="1.28707">
        <ele>307</ele>
        <time>2019-12-06T10:29:17Z</time>
      </trkpt>
      <trkpt lat="45.87202" lon="1.28714">
        <ele>309</ele>
        <time>2019-12-06T10:29:27Z</time>
      </trkpt>
      <trkpt lat="45.87194" lon="1.28715">
        <ele>311</ele>
        <time>2019-12-06T10:29:37Z</time>
      </trkpt>
      <trkpt lat="45.8718" lon="1.28706">
        <ele>313</ele>
        <time>2019-12-06T10:29:48Z</time>
      </trkpt>
      <trkpt lat="45.87169" lon="1.28702">
        <ele>314</ele>
        <time>2019-12-06T10:29:58Z</time>
      </trkpt>
      <trkpt lat="45.87164" lon="1.28723">
        <ele>314</ele>
        <time>2019-12-06T10:30:08Z</time>
      </trkpt>
      <trkpt lat="45.87161" lon="1.2874">
        <ele>314</ele>
        <time>2019-12-06T10:30:19Z</time>
      </trkpt>
      <trkpt lat="45.87162" lon="1.28749">
        <ele>314</ele>
        <time>2019-12-06T10:30:29Z</time>
      </trkpt>
      <trkpt lat="45.87249" lon="1.28775">
        <ele>314</ele>
        <time>2019-12-06T10:30:54Z</time>
      </trkpt>
      <trkpt lat="45.87188" lon="1.28805">
        <ele>314</ele>
        <time>2019-12-06T10:31:05Z</time>
      </trkpt>
      <trkpt lat="45.87163" lon="1.28828">
        <ele>314</ele>
        <time>2019-12-06T10:31:16Z</time>
      </trkpt>
      <trkpt lat="45.87145" lon="1.28843">
        <ele>315</ele>
        <time>2019-12-06T10:31:26Z</time>
      </trkpt>
      <trkpt lat="45.87128" lon="1.28854">
        <ele>315</ele>
        <time>2019-12-06T10:31:37Z</time>
      </trkpt>
      <trkpt lat="45.87114" lon="1.2886">
        <ele>316</ele>
        <time>2019-12-06T10:31:48Z</time>
      </trkpt>
      <trkpt lat="45.87101" lon="1.2887">
        <ele>317</ele>
        <time>2019-12-06T10:31:59Z</time>
      </trkpt>
      <trkpt lat="45.8709" lon="1.28884">
        <ele>318</ele>
        <time>2019-12-06T10:32:10Z</time>
      </trkpt>
      <trkpt lat="45.87085" lon="1.28898">
        <ele>319</ele>
        <time>2019-12-06T10:32:20Z</time>
      </trkpt>
      <trkpt lat="45.87076" lon="1.28906">
        <ele>319</ele>
        <time>2019-12-06T10:32:31Z</time>
      </trkpt>
      <trkpt lat="45.87067" lon="1.28912">
        <ele>320</ele>
        <time>2019-12-06T10:32:42Z</time>
      </trkpt>
      <trkpt lat="45.87056" lon="1.28917">
        <ele>320</ele>
        <time>2019-12-06T10:32:52Z</time>
      </trkpt>
      <trkpt lat="45.87037" lon="1.28921">
        <ele>320</ele>
        <time>2019-12-06T10:33:03Z</time>
      </trkpt>
      <trkpt lat="45.8702" lon="1.28924">
        <ele>320</ele>
        <time>2019-12-06T10:33:13Z</time>
      </trkpt>
      <trkpt lat="45.87004" lon="1.28928">
        <ele>320</ele>
        <time>2019-12-06T10:33:24Z</time>
      </trkpt>
      <trkpt lat="45.86987" lon="1.28929">
        <ele>319</ele>
        <time>2019-12-06T10:33:35Z</time>
      </trkpt>
      <trkpt lat="45.86975" lon="1.28927">
        <ele>319</ele>
        <time>2019-12-06T10:33:45Z</time>
      </trkpt>
      <trkpt lat="45.8696" lon="1.28928">
        <ele>319</ele>
        <time>2019-12-06T10:33:56Z</time>
      </trkpt>
      <trkpt lat="45.86942" lon="1.28934">
        <ele>320</ele>
        <time>2019-12-06T10:34:07Z</time>
      </trkpt>
      <trkpt lat="45.86928" lon="1.28937">
        <ele>320</ele>
        <time>2019-12-06T10:34:17Z</time>
      </trkpt>
      <trkpt lat="45.86913" lon="1.28939">
        <ele>320</ele>
        <time>2019-12-06T10:34:27Z</time>
      </trkpt>
      <trkpt lat="45.86901" lon="1.28941">
        <ele>322</ele>
        <time>2019-12-06T10:34:37Z</time>
      </trkpt>
      <trkpt lat="45.86888" lon="1.28936">
        <ele>322</ele>
        <time>2019-12-06T10:34:48Z</time>
      </trkpt>
      <trkpt lat="45.8687" lon="1.28931">
        <ele>323</ele>
        <time>2019-12-06T10:34:59Z</time>
      </trkpt>
      <trkpt lat="45.86858" lon="1.28932">
        <ele>323</ele>
        <time>2019-12-06T10:35:09Z</time>
      </trkpt>
      <trkpt lat="45.86845" lon="1.28939">
        <ele>324</ele>
        <time>2019-12-06T10:35:20Z</time>
      </trkpt>
      <trkpt lat="45.86829" lon="1.28949">
        <ele>325</ele>
        <time>2019-12-06T10:35:30Z</time>
      </trkpt>
      <trkpt lat="45.86821" lon="1.28954">
        <ele>325</ele>
        <time>2019-12-06T10:35:40Z</time>
      </trkpt>
      <trkpt lat="45.86807" lon="1.2896">
        <ele>327</ele>
        <time>2019-12-06T10:35:51Z</time>
      </trkpt>
      <trkpt lat="45.86797" lon="1.2897">
        <ele>327</ele>
        <time>2019-12-06T10:36:01Z</time>
      </trkpt>
      <trkpt lat="45.86783" lon="1.28973">
        <ele>328</ele>
        <time>2019-12-06T10:36:12Z</time>
      </trkpt>
      <trkpt lat="45.86775" lon="1.28973">
        <ele>329</ele>
        <time>2019-12-06T10:36:22Z</time>
      </trkpt>
      <trkpt lat="45.86772" lon="1.2897">
        <ele>328</ele>
        <time>2019-12-06T10:36:33Z</time>
      </trkpt>
      <trkpt lat="45.86759" lon="1.28957">
        <ele>328</ele>
        <time>2019-12-06T10:36:44Z</time>
      </trkpt>
      <trkpt lat="45.86753" lon="1.28953">
        <ele>328</ele>
        <time>2019-12-06T10:36:55Z</time>
      </trkpt>
      <trkpt lat="45.86744" lon="1.28943">
        <ele>328</ele>
        <time>2019-12-06T10:37:05Z</time>
      </trkpt>
      <trkpt lat="45.86729" lon="1.28932">
        <ele>327</ele>
        <time>2019-12-06T10:37:15Z</time>
      </trkpt>
      <trkpt lat="45.86719" lon="1.28924">
        <ele>328</ele>
        <time>2019-12-06T10:37:26Z</time>
      </trkpt>
      <trkpt lat="45.86706" lon="1.28914">
        <ele>327</ele>
        <time>2019-12-06T10:37:36Z</time>
      </trkpt>
      <trkpt lat="45.86691" lon="1.28901">
        <ele>328</ele>
        <time>2019-12-06T10:37:47Z</time>
      </trkpt>
      <trkpt lat="45.86692" lon="1.28879">
        <ele>326</ele>
        <time>2019-12-06T10:37:58Z</time>
      </trkpt>
      <trkpt lat="45.86699" lon="1.28861">
        <ele>327</ele>
        <time>2019-12-06T10:38:08Z</time>
      </trkpt>
      <trkpt lat="45.86702" lon="1.28845">
        <ele>327</ele>
        <time>2019-12-06T10:38:18Z</time>
      </trkpt>
      <trkpt lat="45.86702" lon="1.28829">
        <ele>327</ele>
        <time>2019-12-06T10:38:28Z</time>
      </trkpt>
      <trkpt lat="45.86684" lon="1.28816">
        <ele>327</ele>
        <time>2019-12-06T10:38:39Z</time>
      </trkpt>
      <trkpt lat="45.86666" lon="1.28811">
        <ele>328</ele>
        <time>2019-12-06T10:38:50Z</time>
      </trkpt>
      <trkpt lat="45.86652" lon="1.28804">
        <ele>329</ele>
        <time>2019-12-06T10:39:01Z</time>
      </trkpt>
      <trkpt lat="45.86635" lon="1.28802">
        <ele>329</ele>
        <time>2019-12-06T10:39:12Z</time>
      </trkpt>
      <trkpt lat="45.86626" lon="1.28791">
        <ele>330</ele>
        <time>2019-12-06T10:39:22Z</time>
      </trkpt>
      <trkpt lat="45.86626" lon="1.28772">
        <ele>331</ele>
        <time>2019-12-06T10:39:32Z</time>
      </trkpt>
      <trkpt lat="45.86628" lon="1.28751">
        <ele>331</ele>
        <time>2019-12-06T10:39:43Z</time>
      </trkpt>
      <trkpt lat="45.8663" lon="1.28733">
        <ele>330</ele>
        <time>2019-12-06T10:39:53Z</time>
      </trkpt>
      <trkpt lat="45.86622" lon="1.28723">
        <ele>330</ele>
        <time>2019-12-06T10:40:03Z</time>
      </trkpt>
      <trkpt lat="45.86611" lon="1.28716">
        <ele>330</ele>
        <time>2019-12-06T10:40:13Z</time>
      </trkpt>
      <trkpt lat="45.86601" lon="1.28704">
        <ele>332</ele>
        <time>2019-12-06T10:40:24Z</time>
      </trkpt>
      <trkpt lat="45.8659" lon="1.2869">
        <ele>332</ele>
        <time>2019-12-06T10:40:34Z</time>
      </trkpt>
      <trkpt lat="45.86574" lon="1.28679">
        <ele>332</ele>
        <time>2019-12-06T10:40:45Z</time>
      </trkpt>
      <trkpt lat="45.86558" lon="1.28684">
        <ele>332</ele>
        <time>2019-12-06T10:40:55Z</time>
      </trkpt>
      <trkpt lat="45.86542" lon="1.28689">
        <ele>332</ele>
        <time>2019-12-06T10:41:06Z</time>
      </trkpt>
      <trkpt lat="45.86529" lon="1.28692">
        <ele>331</ele>
        <time>2019-12-06T10:41:17Z</time>
      </trkpt>
      <trkpt lat="45.86511" lon="1.28696">
        <ele>330</ele>
        <time>2019-12-06T10:41:28Z</time>
      </trkpt>
      <trkpt lat="45.86499" lon="1.28692">
        <ele>330</ele>
        <time>2019-12-06T10:41:38Z</time>
      </trkpt>
      <trkpt lat="45.86486" lon="1.28687">
        <ele>329</ele>
        <time>2019-12-06T10:41:49Z</time>
      </trkpt>
      <trkpt lat="45.86472" lon="1.28678">
        <ele>328</ele>
        <time>2019-12-06T10:42:00Z</time>
      </trkpt>
      <trkpt lat="45.8646" lon="1.28667">
        <ele>328</ele>
        <time>2019-12-06T10:42:11Z</time>
      </trkpt>
      <trkpt lat="45.86451" lon="1.28656">
        <ele>327</ele>
        <time>2019-12-06T10:42:21Z</time>
      </trkpt>
      <trkpt lat="45.86439" lon="1.28646">
        <ele>326</ele>
        <time>2019-12-06T10:42:32Z</time>
      </trkpt>
      <trkpt lat="45.86426" lon="1.28634">
        <ele>326</ele>
        <time>2019-12-06T10:42:42Z</time>
      </trkpt>
      <trkpt lat="45.86415" lon="1.28626">
        <ele>325</ele>
        <time>2019-12-06T10:42:52Z</time>
      </trkpt>
      <trkpt lat="45.86398" lon="1.28619">
        <ele>324</ele>
        <time>2019-12-06T10:43:03Z</time>
      </trkpt>
      <trkpt lat="45.86383" lon="1.28613">
        <ele>324</ele>
        <time>2019-12-06T10:43:14Z</time>
      </trkpt>
      <trkpt lat="45.86371" lon="1.28612">
        <ele>323</ele>
        <time>2019-12-06T10:43:25Z</time>
      </trkpt>
      <trkpt lat="45.86354" lon="1.28607">
        <ele>322</ele>
        <time>2019-12-06T10:43:35Z</time>
      </trkpt>
      <trkpt lat="45.8634" lon="1.28606">
        <ele>321</ele>
        <time>2019-12-06T10:43:45Z</time>
      </trkpt>
      <trkpt lat="45.86324" lon="1.28606">
        <ele>321</ele>
        <time>2019-12-06T10:43:56Z</time>
      </trkpt>
      <trkpt lat="45.86311" lon="1.28603">
        <ele>321</ele>
        <time>2019-12-06T10:44:07Z</time>
      </trkpt>
      <trkpt lat="45.86295" lon="1.28602">
        <ele>320</ele>
        <time>2019-12-06T10:44:18Z</time>
      </trkpt>
      <trkpt lat="45.86277" lon="1.28603">
        <ele>319</ele>
        <time>2019-12-06T10:44:29Z</time>
      </trkpt>
      <trkpt lat="45.86262" lon="1.28597">
        <ele>320</ele>
        <time>2019-12-06T10:44:39Z</time>
      </trkpt>
      <trkpt lat="45.86251" lon="1.28585">
        <ele>319</ele>
        <time>2019-12-06T10:44:50Z</time>
      </trkpt>
      <trkpt lat="45.86242" lon="1.28568">
        <ele>319</ele>
        <time>2019-12-06T10:45:01Z</time>
      </trkpt>
      <trkpt lat="45.86233" lon="1.28553">
        <ele>319</ele>
        <time>2019-12-06T10:45:12Z</time>
      </trkpt>
      <trkpt lat="45.86224" lon="1.28535">
        <ele>319</ele>
        <time>2019-12-06T10:45:22Z</time>
      </trkpt>
      <trkpt lat="45.86213" lon="1.2852">
        <ele>318</ele>
        <time>2019-12-06T10:45:33Z</time>
      </trkpt>
      <trkpt lat="45.8621" lon="1.28503">
        <ele>318</ele>
        <time>2019-12-06T10:45:44Z</time>
      </trkpt>
      <trkpt lat="45.86202" lon="1.28481">
        <ele>318</ele>
        <time>2019-12-06T10:45:55Z</time>
      </trkpt>
      <trkpt lat="45.86189" lon="1.28465">
        <ele>318</ele>
        <time>2019-12-06T10:46:05Z</time>
      </trkpt>
      <trkpt lat="45.86181" lon="1.28442">
        <ele>317</ele>
        <time>2019-12-06T10:46:16Z</time>
      </trkpt>
      <trkpt lat="45.86174" lon="1.28424">
        <ele>317</ele>
        <time>2019-12-06T10:46:26Z</time>
      </trkpt>
      <trkpt lat="45.86167" lon="1.28405">
        <ele>316</ele>
        <time>2019-12-06T10:46:36Z</time>
      </trkpt>
      <trkpt lat="45.86179" lon="1.28386">
        <ele>316</ele>
        <time>2019-12-06T10:46:47Z</time>
      </trkpt>
      <trkpt lat="45.86188" lon="1.28374">
        <ele>316</ele>
        <time>2019-12-06T10:46:58Z</time>
      </trkpt>
      <trkpt lat="45.86197" lon="1.2836">
        <ele>315</ele>
        <time>2019-12-06T10:47:09Z</time>
      </trkpt>
      <trkpt lat="45.86202" lon="1.28347">
        <ele>314</ele>
        <time>2019-12-06T10:47:19Z</time>
      </trkpt>
      <trkpt lat="45.86204" lon="1.28351">
        <ele>315</ele>
        <time>2019-12-06T10:47:29Z</time>
      </trkpt>
      <trkpt lat="45.86205" lon="1.28339">
        <ele>314</ele>
        <time>2019-12-06T10:47:40Z</time>
      </trkpt>
      <trkpt lat="45.86192" lon="1.28312">
        <ele>314</ele>
        <time>2019-12-06T10:47:50Z</time>
      </trkpt>
      <trkpt lat="45.86189" lon="1.28299">
        <ele>315</ele>
        <time>2019-12-06T10:48:01Z</time>
      </trkpt>
      <trkpt lat="45.86181" lon="1.28283">
        <ele>314</ele>
        <time>2019-12-06T10:48:11Z</time>
      </trkpt>
      <trkpt lat="45.86172" lon="1.28261">
        <ele>314</ele>
        <time>2019-12-06T10:48:22Z</time>
      </trkpt>
      <trkpt lat="45.86163" lon="1.28246">
        <ele>314</ele>
        <time>2019-12-06T10:48:33Z</time>
      </trkpt>
      <trkpt lat="45.86161" lon="1.28229">
        <ele>314</ele>
        <time>2019-12-06T10:48:43Z</time>
      </trkpt>
      <trkpt lat="45.86162" lon="1.2821">
        <ele>314</ele>
        <time>2019-12-06T10:48:53Z</time>
      </trkpt>
      <trkpt lat="45.86161" lon="1.28188">
        <ele>313</ele>
        <time>2019-12-06T10:49:04Z</time>
      </trkpt>
      <trkpt lat="45.86167" lon="1.28171">
        <ele>313</ele>
        <time>2019-12-06T10:49:15Z</time>
      </trkpt>
      <trkpt lat="45.86173" lon="1.28173">
        <ele>312</ele>
        <time>2019-12-06T10:49:25Z</time>
      </trkpt>
      <trkpt lat="45.86178" lon="1.28181">
        <ele>311</ele>
        <time>2019-12-06T10:49:35Z</time>
      </trkpt>
      <trkpt lat="45.86188" lon="1.28189">
        <ele>311</ele>
        <time>2019-12-06T10:49:46Z</time>
      </trkpt>
      <trkpt lat="45.86197" lon="1.28199">
        <ele>311</ele>
        <time>2019-12-06T10:49:56Z</time>
      </trkpt>
      <trkpt lat="45.86197" lon="1.28215">
        <ele>311</ele>
        <time>2019-12-06T10:50:06Z</time>
      </trkpt>
      <trkpt lat="45.86205" lon="1.28227">
        <ele>310</ele>
        <time>2019-12-06T10:50:16Z</time>
      </trkpt>
      <trkpt lat="45.86221" lon="1.2824">
        <ele>310</ele>
        <time>2019-12-06T10:50:27Z</time>
      </trkpt>
      <trkpt lat="45.86233" lon="1.2825">
        <ele>310</ele>
        <time>2019-12-06T10:50:37Z</time>
      </trkpt>
      <trkpt lat="45.8624" lon="1.28257">
        <ele>311</ele>
        <time>2019-12-06T10:50:48Z</time>
      </trkpt>
      <trkpt lat="45.86264" lon="1.28248">
        <ele>311</ele>
        <time>2019-12-06T10:50:58Z</time>
      </trkpt>
      <trkpt lat="45.86284" lon="1.2823">
        <ele>311</ele>
        <time>2019-12-06T10:51:08Z</time>
      </trkpt>
      <trkpt lat="45.86294" lon="1.28217">
        <ele>311</ele>
        <time>2019-12-06T10:51:19Z</time>
      </trkpt>
      <trkpt lat="45.863" lon="1.28207">
        <ele>311</ele>
        <time>2019-12-06T10:51:30Z</time>
      </trkpt>
      <trkpt lat="45.8631" lon="1.28194">
        <ele>312</ele>
        <time>2019-12-06T10:51:40Z</time>
      </trkpt>
      <trkpt lat="45.86323" lon="1.28176">
        <ele>312</ele>
        <time>2019-12-06T10:51:50Z</time>
      </trkpt>
      <trkpt lat="45.86332" lon="1.28155">
        <ele>311</ele>
        <time>2019-12-06T10:52:00Z</time>
      </trkpt>
      <trkpt lat="45.86343" lon="1.28131">
        <ele>312</ele>
        <time>2019-12-06T10:52:11Z</time>
      </trkpt>
      <trkpt lat="45.8635" lon="1.28111">
        <ele>312</ele>
        <time>2019-12-06T10:52:21Z</time>
      </trkpt>
      <trkpt lat="45.86356" lon="1.28095">
        <ele>311</ele>
        <time>2019-12-06T10:52:31Z</time>
      </trkpt>
      <trkpt lat="45.8637" lon="1.28077">
        <ele>311</ele>
        <time>2019-12-06T10:52:42Z</time>
      </trkpt>
      <trkpt lat="45.86379" lon="1.28063">
        <ele>311</ele>
        <time>2019-12-06T10:52:53Z</time>
      </trkpt>
      <trkpt lat="45.86375" lon="1.28045">
        <ele>310</ele>
        <time>2019-12-06T10:53:03Z</time>
      </trkpt>
      <trkpt lat="45.86367" lon="1.28028">
        <ele>310</ele>
        <time>2019-12-06T10:53:14Z</time>
      </trkpt>
      <trkpt lat="45.86354" lon="1.2801">
        <ele>308</ele>
        <time>2019-12-06T10:53:24Z</time>
      </trkpt>
      <trkpt lat="45.8634" lon="1.27994">
        <ele>307</ele>
        <time>2019-12-06T10:53:34Z</time>
      </trkpt>
      <trkpt lat="45.8633" lon="1.27976">
        <ele>305</ele>
        <time>2019-12-06T10:53:44Z</time>
      </trkpt>
      <trkpt lat="45.86317" lon="1.2796">
        <ele>303</ele>
        <time>2019-12-06T10:53:55Z</time>
      </trkpt>
      <trkpt lat="45.86306" lon="1.2794">
        <ele>303</ele>
        <time>2019-12-06T10:54:06Z</time>
      </trkpt>
      <trkpt lat="45.86295" lon="1.27924">
        <ele>303</ele>
        <time>2019-12-06T10:54:16Z</time>
      </trkpt>
      <trkpt lat="45.86294" lon="1.27903">
        <ele>304</ele>
        <time>2019-12-06T10:54:27Z</time>
      </trkpt>
      <trkpt lat="45.86296" lon="1.27881">
        <ele>305</ele>
        <time>2019-12-06T10:54:37Z</time>
      </trkpt>
      <trkpt lat="45.86305" lon="1.27857">
        <ele>305</ele>
        <time>2019-12-06T10:54:48Z</time>
      </trkpt>
      <trkpt lat="45.86316" lon="1.27839">
        <ele>305</ele>
        <time>2019-12-06T10:54:58Z</time>
      </trkpt>
      <trkpt lat="45.86326" lon="1.27822">
        <ele>305</ele>
        <time>2019-12-06T10:55:08Z</time>
      </trkpt>
      <trkpt lat="45.86326" lon="1.27807">
        <ele>305</ele>
        <time>2019-12-06T10:55:18Z</time>
      </trkpt>
      <trkpt lat="45.86333" lon="1.27787">
        <ele>304</ele>
        <time>2019-12-06T10:55:29Z</time>
      </trkpt>
      <trkpt lat="45.86341" lon="1.27766">
        <ele>304</ele>
        <time>2019-12-06T10:55:40Z</time>
      </trkpt>
      <trkpt lat="45.86345" lon="1.27749">
        <ele>303</ele>
        <time>2019-12-06T10:55:50Z</time>
      </trkpt>
      <trkpt lat="45.86354" lon="1.27736">
        <ele>302</ele>
        <time>2019-12-06T10:56:00Z</time>
      </trkpt>
      <trkpt lat="45.86367" lon="1.27714">
        <ele>302</ele>
        <time>2019-12-06T10:56:11Z</time>
      </trkpt>
      <trkpt lat="45.86379" lon="1.27701">
        <ele>300</ele>
        <time>2019-12-06T10:56:21Z</time>
      </trkpt>
      <trkpt lat="45.86382" lon="1.27693">
        <ele>299</ele>
        <time>2019-12-06T10:56:32Z</time>
      </trkpt>
      <trkpt lat="45.86395" lon="1.27679">
        <ele>298</ele>
        <time>2019-12-06T10:56:42Z</time>
      </trkpt>
      <trkpt lat="45.86407" lon="1.27667">
        <ele>296</ele>
        <time>2019-12-06T10:56:52Z</time>
      </trkpt>
      <trkpt lat="45.8642" lon="1.27656">
        <ele>295</ele>
        <time>2019-12-06T10:57:02Z</time>
      </trkpt>
      <trkpt lat="45.86429" lon="1.27656">
        <ele>295</ele>
        <time>2019-12-06T10:57:12Z</time>
      </trkpt>
      <trkpt lat="45.86436" lon="1.27659">
        <ele>295</ele>
        <time>2019-12-06T10:57:23Z</time>
      </trkpt>
      <trkpt lat="45.86444" lon="1.27665">
        <ele>295</ele>
        <time>2019-12-06T10:57:33Z</time>
      </trkpt>
      <trkpt lat="45.86465" lon="1.27667">
        <ele>294</ele>
        <time>2019-12-06T10:57:43Z</time>
      </trkpt>
      <trkpt lat="45.8647" lon="1.27685">
        <ele>292</ele>
        <time>2019-12-06T10:57:54Z</time>
      </trkpt>
      <trkpt lat="45.86472" lon="1.277">
        <ele>291</ele>
        <time>2019-12-06T10:58:04Z</time>
      </trkpt>
      <trkpt lat="45.86475" lon="1.2771">
        <ele>291</ele>
        <time>2019-12-06T10:58:15Z</time>
      </trkpt>
      <trkpt lat="45.86489" lon="1.27718">
        <ele>292</ele>
        <time>2019-12-06T10:58:25Z</time>
      </trkpt>
      <trkpt lat="45.86502" lon="1.27736">
        <ele>293</ele>
        <time>2019-12-06T10:58:36Z</time>
      </trkpt>
      <trkpt lat="45.86514" lon="1.27749">
        <ele>295</ele>
        <time>2019-12-06T10:58:46Z</time>
      </trkpt>
      <trkpt lat="45.86534" lon="1.27754">
        <ele>296</ele>
        <time>2019-12-06T10:58:56Z</time>
      </trkpt>
      <trkpt lat="45.86544" lon="1.27748">
        <ele>296</ele>
        <time>2019-12-06T10:59:06Z</time>
      </trkpt>
      <trkpt lat="45.86556" lon="1.27737">
        <ele>294</ele>
        <time>2019-12-06T10:59:17Z</time>
      </trkpt>
      <trkpt lat="45.86567" lon="1.27727">
        <ele>294</ele>
        <time>2019-12-06T10:59:28Z</time>
      </trkpt>
      <trkpt lat="45.86577" lon="1.27725">
        <ele>293</ele>
        <time>2019-12-06T10:59:39Z</time>
      </trkpt>
      <trkpt lat="45.86586" lon="1.27734">
        <ele>294</ele>
        <time>2019-12-06T10:59:50Z</time>
      </trkpt>
      <trkpt lat="45.86589" lon="1.27749">
        <ele>295</ele>
        <time>2019-12-06T11:00:00Z</time>
      </trkpt>
      <trkpt lat="45.86596" lon="1.27766">
        <ele>296</ele>
        <time>2019-12-06T11:00:10Z</time>
      </trkpt>
      <trkpt lat="45.86611" lon="1.27778">
        <ele>296</ele>
        <time>2019-12-06T11:00:21Z</time>
      </trkpt>
      <trkpt lat="45.86637" lon="1.27782">
        <ele>296</ele>
        <time>2019-12-06T11:00:31Z</time>
      </trkpt>
      <trkpt lat="45.86646" lon="1.2777">
        <ele>296</ele>
        <time>2019-12-06T11:00:41Z</time>
      </trkpt>
      <trkpt lat="45.86649" lon="1.27754">
        <ele>295</ele>
        <time>2019-12-06T11:00:51Z</time>
      </trkpt>
      <trkpt lat="45.86654" lon="1.2773">
        <ele>295</ele>
        <time>2019-12-06T11:01:02Z</time>
      </trkpt>
      <trkpt lat="45.86662" lon="1.27709">
        <ele>294</ele>
        <time>2019-12-06T11:01:12Z</time>
      </trkpt>
      <trkpt lat="45.8667" lon="1.27692">
        <ele>295</ele>
        <time>2019-12-06T11:01:22Z</time>
      </trkpt>
      <trkpt lat="45.86672" lon="1.27676">
        <ele>295</ele>
        <time>2019-12-06T11:01:32Z</time>
      </trkpt>
      <trkpt lat="45.86678" lon="1.2766">
        <ele>295</ele>
        <time>2019-12-06T11:01:43Z</time>
      </trkpt>
      <trkpt lat="45.86681" lon="1.27649">
        <ele>295</ele>
        <time>2019-12-06T11:01:55Z</time>
      </trkpt>
      <trkpt lat="45.86674" lon="1.27645">
        <ele>293</ele>
        <time>2019-12-06T11:02:05Z</time>
      </trkpt>
      <trkpt lat="45.86665" lon="1.27641">
        <ele>289</ele>
        <time>2019-12-06T11:02:17Z</time>
      </trkpt>
      <trkpt lat="45.86664" lon="1.27624">
        <ele>287</ele>
        <time>2019-12-06T11:02:28Z</time>
      </trkpt>
      <trkpt lat="45.86654" lon="1.27612">
        <ele>287</ele>
        <time>2019-12-06T11:02:38Z</time>
      </trkpt>
      <trkpt lat="45.86642" lon="1.2761">
        <ele>287</ele>
        <time>2019-12-06T11:02:48Z</time>
      </trkpt>
      <trkpt lat="45.86639" lon="1.27604">
        <ele>287</ele>
        <time>2019-12-06T11:02:59Z</time>
      </trkpt>
      <trkpt lat="45.86643" lon="1.27595">
        <ele>286</ele>
        <time>2019-12-06T11:03:09Z</time>
      </trkpt>
      <trkpt lat="45.8665" lon="1.27579">
        <ele>286</ele>
        <time>2019-12-06T11:03:20Z</time>
      </trkpt>
      <trkpt lat="45.86666" lon="1.27586">
        <ele>286</ele>
        <time>2019-12-06T11:03:31Z</time>
      </trkpt>
      <trkpt lat="45.86679" lon="1.2759">
        <ele>285</ele>
        <time>2019-12-06T11:03:41Z</time>
      </trkpt>
      <trkpt lat="45.86692" lon="1.27581">
        <ele>284</ele>
        <time>2019-12-06T11:03:52Z</time>
      </trkpt>
      <trkpt lat="45.86707" lon="1.27575">
        <ele>283</ele>
        <time>2019-12-06T11:04:03Z</time>
      </trkpt>
      <trkpt lat="45.86721" lon="1.27577">
        <ele>282</ele>
        <time>2019-12-06T11:04:13Z</time>
      </trkpt>
      <trkpt lat="45.86732" lon="1.27579">
        <ele>281</ele>
        <time>2019-12-06T11:04:24Z</time>
      </trkpt>
      <trkpt lat="45.86729" lon="1.27564">
        <ele>280</ele>
        <time>2019-12-06T11:04:34Z</time>
      </trkpt>
      <trkpt lat="45.86726" lon="1.27547">
        <ele>280</ele>
        <time>2019-12-06T11:04:45Z</time>
      </trkpt>
      <trkpt lat="45.8672" lon="1.27525">
        <ele>280</ele>
        <time>2019-12-06T11:04:55Z</time>
      </trkpt>
      <trkpt lat="45.86715" lon="1.27504">
        <ele>278</ele>
        <time>2019-12-06T11:05:06Z</time>
      </trkpt>
      <trkpt lat="45.86707" lon="1.27486">
        <ele>278</ele>
        <time>2019-12-06T11:05:16Z</time>
      </trkpt>
      <trkpt lat="45.86696" lon="1.27469">
        <ele>277</ele>
        <time>2019-12-06T11:05:26Z</time>
      </trkpt>
      <trkpt lat="45.86686" lon="1.27453">
        <ele>276</ele>
        <time>2019-12-06T11:05:36Z</time>
      </trkpt>
      <trkpt lat="45.86676" lon="1.27439">
        <ele>276</ele>
        <time>2019-12-06T11:05:47Z</time>
      </trkpt>
      <trkpt lat="45.86663" lon="1.27429">
        <ele>276</ele>
        <time>2019-12-06T11:05:57Z</time>
      </trkpt>
      <trkpt lat="45.86649" lon="1.27421">
        <ele>277</ele>
        <time>2019-12-06T11:06:07Z</time>
      </trkpt>
      <trkpt lat="45.86635" lon="1.27422">
        <ele>277</ele>
        <time>2019-12-06T11:06:18Z</time>
      </trkpt>
      <trkpt lat="45.8662" lon="1.27423">
        <ele>278</ele>
        <time>2019-12-06T11:06:28Z</time>
      </trkpt>
      <trkpt lat="45.86606" lon="1.27418">
        <ele>278</ele>
        <time>2019-12-06T11:06:38Z</time>
      </trkpt>
      <trkpt lat="45.86593" lon="1.27406">
        <ele>278</ele>
        <time>2019-12-06T11:06:49Z</time>
      </trkpt>
      <trkpt lat="45.86582" lon="1.27387">
        <ele>278</ele>
        <time>2019-12-06T11:07:00Z</time>
      </trkpt>
      <trkpt lat="45.86573" lon="1.27367">
        <ele>277</ele>
        <time>2019-12-06T11:07:11Z</time>
      </trkpt>
      <trkpt lat="45.8656" lon="1.27354">
        <ele>276</ele>
        <time>2019-12-06T11:07:21Z</time>
      </trkpt>
      <trkpt lat="45.86543" lon="1.27349">
        <ele>276</ele>
        <time>2019-12-06T11:07:33Z</time>
      </trkpt>
      <trkpt lat="45.86528" lon="1.27346">
        <ele>276</ele>
        <time>2019-12-06T11:07:43Z</time>
      </trkpt>
      <trkpt lat="45.86512" lon="1.27345">
        <ele>276</ele>
        <time>2019-12-06T11:07:53Z</time>
      </trkpt>
      <trkpt lat="45.86497" lon="1.27345">
        <ele>276</ele>
        <time>2019-12-06T11:08:04Z</time>
      </trkpt>
      <trkpt lat="45.86482" lon="1.27348">
        <ele>277</ele>
        <time>2019-12-06T11:08:15Z</time>
      </trkpt>
      <trkpt lat="45.86466" lon="1.2735">
        <ele>277</ele>
        <time>2019-12-06T11:08:26Z</time>
      </trkpt>
      <trkpt lat="45.86452" lon="1.27342">
        <ele>276</ele>
        <time>2019-12-06T11:08:36Z</time>
      </trkpt>
      <trkpt lat="45.86442" lon="1.27328">
        <ele>276</ele>
        <time>2019-12-06T11:08:46Z</time>
      </trkpt>
      <trkpt lat="45.86433" lon="1.27309">
        <ele>276</ele>
        <time>2019-12-06T11:08:57Z</time>
      </trkpt>
      <trkpt lat="45.86431" lon="1.27287">
        <ele>276</ele>
        <time>2019-12-06T11:09:07Z</time>
      </trkpt>
      <trkpt lat="45.86437" lon="1.27267">
        <ele>276</ele>
        <time>2019-12-06T11:09:18Z</time>
      </trkpt>
      <trkpt lat="45.86446" lon="1.27251">
        <ele>276</ele>
        <time>2019-12-06T11:09:29Z</time>
      </trkpt>
      <trkpt lat="45.8646" lon="1.27236">
        <ele>276</ele>
        <time>2019-12-06T11:09:39Z</time>
      </trkpt>
      <trkpt lat="45.86473" lon="1.27225">
        <ele>276</ele>
        <time>2019-12-06T11:09:49Z</time>
      </trkpt>
      <trkpt lat="45.86486" lon="1.27212">
        <ele>277</ele>
        <time>2019-12-06T11:10:00Z</time>
      </trkpt>
      <trkpt lat="45.86501" lon="1.27197">
        <ele>278</ele>
        <time>2019-12-06T11:10:11Z</time>
      </trkpt>
      <trkpt lat="45.86514" lon="1.27183">
        <ele>279</ele>
        <time>2019-12-06T11:10:21Z</time>
      </trkpt>
      <trkpt lat="45.8653" lon="1.27173">
        <ele>279</ele>
        <time>2019-12-06T11:10:32Z</time>
      </trkpt>
      <trkpt lat="45.86541" lon="1.2716">
        <ele>278</ele>
        <time>2019-12-06T11:10:43Z</time>
      </trkpt>
      <trkpt lat="45.86554" lon="1.27153">
        <ele>278</ele>
        <time>2019-12-06T11:10:54Z</time>
      </trkpt>
      <trkpt lat="45.86557" lon="1.27171">
        <ele>277</ele>
        <time>2019-12-06T11:11:04Z</time>
      </trkpt>
      <trkpt lat="45.8657" lon="1.27183">
        <ele>277</ele>
        <time>2019-12-06T11:11:15Z</time>
      </trkpt>
      <trkpt lat="45.86585" lon="1.27172">
        <ele>276</ele>
        <time>2019-12-06T11:11:26Z</time>
      </trkpt>
      <trkpt lat="45.86597" lon="1.27156">
        <ele>276</ele>
        <time>2019-12-06T11:11:36Z</time>
      </trkpt>
      <trkpt lat="45.86609" lon="1.27142">
        <ele>276</ele>
        <time>2019-12-06T11:11:46Z</time>
      </trkpt>
      <trkpt lat="45.86628" lon="1.27139">
        <ele>277</ele>
        <time>2019-12-06T11:11:57Z</time>
      </trkpt>
      <trkpt lat="45.86641" lon="1.27145">
        <ele>276</ele>
        <time>2019-12-06T11:12:08Z</time>
      </trkpt>
      <trkpt lat="45.86651" lon="1.27157">
        <ele>276</ele>
        <time>2019-12-06T11:12:20Z</time>
      </trkpt>
      <trkpt lat="45.86663" lon="1.27174">
        <ele>276</ele>
        <time>2019-12-06T11:12:30Z</time>
      </trkpt>
      <trkpt lat="45.86669" lon="1.27194">
        <ele>276</ele>
        <time>2019-12-06T11:12:41Z</time>
      </trkpt>
      <trkpt lat="45.86675" lon="1.27214">
        <ele>276</ele>
        <time>2019-12-06T11:12:52Z</time>
      </trkpt>
      <trkpt lat="45.86691" lon="1.27209">
        <ele>277</ele>
        <time>2019-12-06T11:13:02Z</time>
      </trkpt>
      <trkpt lat="45.86708" lon="1.27207">
        <ele>276</ele>
        <time>2019-12-06T11:13:12Z</time>
      </trkpt>
      <trkpt lat="45.86724" lon="1.27207">
        <ele>277</ele>
        <time>2019-12-06T11:13:22Z</time>
      </trkpt>
      <trkpt lat="45.86738" lon="1.27208">
        <ele>277</ele>
        <time>2019-12-06T11:13:33Z</time>
      </trkpt>
      <trkpt lat="45.86757" lon="1.27219">
        <ele>277</ele>
        <time>2019-12-06T11:13:44Z</time>
      </trkpt>
      <trkpt lat="45.86775" lon="1.27228">
        <ele>276</ele>
        <time>2019-12-06T11:13:55Z</time>
      </trkpt>
      <trkpt lat="45.86789" lon="1.27235">
        <ele>276</ele>
        <time>2019-12-06T11:14:06Z</time>
      </trkpt>
      <trkpt lat="45.86808" lon="1.27245">
        <ele>276</ele>
        <time>2019-12-06T11:14:16Z</time>
      </trkpt>
      <trkpt lat="45.86818" lon="1.27258">
        <ele>277</ele>
        <time>2019-12-06T11:14:26Z</time>
      </trkpt>
      <trkpt lat="45.86832" lon="1.27273">
        <ele>277</ele>
        <time>2019-12-06T11:14:37Z</time>
      </trkpt>
      <trkpt lat="45.86843" lon="1.27286">
        <ele>277</ele>
        <time>2019-12-06T11:14:48Z</time>
      </trkpt>
      <trkpt lat="45.86857" lon="1.27292">
        <ele>278</ele>
        <time>2019-12-06T11:14:58Z</time>
      </trkpt>
      <trkpt lat="45.86872" lon="1.27296">
        <ele>279</ele>
        <time>2019-12-06T11:15:09Z</time>
      </trkpt>
      <trkpt lat="45.86883" lon="1.27297">
        <ele>281</ele>
        <time>2019-12-06T11:15:19Z</time>
      </trkpt>
      <trkpt lat="45.86891" lon="1.27307">
        <ele>281</ele>
        <time>2019-12-06T11:15:30Z</time>
      </trkpt>
      <trkpt lat="45.86898" lon="1.27317">
        <ele>281</ele>
        <time>2019-12-06T11:15:41Z</time>
      </trkpt>
      <trkpt lat="45.86895" lon="1.27329">
        <ele>281</ele>
        <time>2019-12-06T11:15:52Z</time>
      </trkpt>
      <trkpt lat="45.86893" lon="1.27333">
        <ele>280</ele>
        <time>2019-12-06T11:15:53Z</time>
      </trkpt>
    </trkseg>
  </trk>
</gpx>